ΕΜΥ, Εθνική Μετεωρολογική Υπηρεσία - Δελτία Καιρού, Προγνώσεις

ΑΕΡΟΝΑΥΤΙΛΙΑ

GREEK AIRPORTS CODES

TAF LGKP 052300Z 0600/0609 23012KT 9999 FEW018 BECMG 0601/0603 FEW018 SCT050=

EUROPEAN AIRPORTS CODES

840 052300Z AUTO VRB02KT //// // ////// 07/05 Q1017 RE//=